Terminal Aerodrome Forecast
Issued by NWS Des Moines, IA

Home | Current Version | Previous Version | Text Only | Print | Product List | Glossary On
Versions: 1 2 3 4 5 6 7 8 9 10 11 12 13 14 15 16 17 18 19 20 21 22 23
000
FTUS43 KDMX 240703 AAB
TAFDSM
TAF AMD
KDSM 240703Z 2407/2506 17007KT 1/4SM FG VV001
     FM241300 17008KT 1/2SM FG BKN002
     FM241400 18010KT 4SM BR BKN006
     FM241600 23012KT P6SM SCT018 SCT200
     FM250100 28008KT P6SM SCT200=

USA.gov is the U.S. government's official web portal to all federal, state and local government web resources and services.